Etusivu
METAR-TAF:

METAR-TAF

Lentoasemat :

Hondo, Texas, Yhdysvallat

Leveyspiiri: 29-21-34N, Pituuspiiri: 099-10-27W, korkeus merenpinnasta: 283 m

Tämänhetkinen sää

Tämä raportti tehtiin 11 minuuttia sitten, kello 21.51 UTC
Tuuli 14 kn kaakosta
Lämpötila 33°C
Kosteus 46%
Ilmanpaine 1014 hPa
Näkyvyys: 16.1 km
Muutamia pilviä 5000 ft:n korkeudessa

METAR: KHDO 252151Z AUTO 14014KT 10SM FEW050 33/20 A2993 RMK AO2 SLP119 T03280200

Aika: 17:02 (22:02 UTC)


TAF: puuttuu

Säähavainnot ja -ennusteet yli 4000 lentoasemalta (METAR- ja TAF-raportit).

Käytössä olevat sääasemat on merkitty karttaan keltaisilla ja punaisilla pisteillä.

Aseta hiiri pisteen päälle nähdäksesi sääaseman nimen.

Klikkaa sitten nähdäksesi säähavainnot ja -ennusteet.

Kartan vaihtaminen: klikkaa mustalla rastilla varustettuja vihreitä pisteitä, niin voit zoomata sisään; viivalla varustettua vihreää pistettä, niin voit zoomata ulos tai vihreitä nuolia, niin pääset viereisille kartoille.


METAR-TAF: